sensor_id;sensor_type;location;lat;lon;timestamp;temperature;humidity
76613;DHT22;65507;48.454;-2.058;2022-12-20T00:01:10;13.90;85.40
76613;DHT22;65507;48.454;-2.058;2022-12-20T00:03:36;13.90;85.30
76613;DHT22;65507;48.454;-2.058;2022-12-20T00:06:03;13.90;85.30
76613;DHT22;65507;48.454;-2.058;2022-12-20T00:08:29;13.90;85.30
76613;DHT22;65507;48.454;-2.058;2022-12-20T00:10:54;13.90;85.20
76613;DHT22;65507;48.454;-2.058;2022-12-20T00:13:20;13.90;85.20
76613;DHT22;65507;48.454;-2.058;2022-12-20T00:15:46;13.90;85.20
76613;DHT22;65507;48.454;-2.058;2022-12-20T00:18:12;13.90;85.20
76613;DHT22;65507;48.454;-2.058;2022-12-20T00:20:38;13.80;85.20
76613;DHT22;65507;48.454;-2.058;2022-12-20T00:23:03;13.90;86.10
76613;DHT22;65507;48.454;-2.058;2022-12-20T00:25:29;13.80;85.20
76613;DHT22;65507;48.454;-2.058;2022-12-20T00:27:55;13.80;85.20
76613;DHT22;65507;48.454;-2.058;2022-12-20T00:30:21;13.80;85.20
76613;DHT22;65507;48.454;-2.058;2022-12-20T00:32:46;13.80;85.30
76613;DHT22;65507;48.454;-2.058;2022-12-20T00:35:12;13.80;85.20
76613;DHT22;65507;48.454;-2.058;2022-12-20T00:37:38;13.80;85.30
76613;DHT22;65507;48.454;-2.058;2022-12-20T00:40:05;13.80;85.30
76613;DHT22;65507;48.454;-2.058;2022-12-20T00:42:31;13.80;85.30
76613;DHT22;65507;48.454;-2.058;2022-12-20T00:44:57;13.70;85.40
76613;DHT22;65507;48.454;-2.058;2022-12-20T00:47:23;13.70;85.40
76613;DHT22;65507;48.454;-2.058;2022-12-20T00:49:48;13.70;85.40
76613;DHT22;65507;48.454;-2.058;2022-12-20T00:52:14;13.70;85.50
76613;DHT22;65507;48.454;-2.058;2022-12-20T00:54:40;13.70;85.40
76613;DHT22;65507;48.454;-2.058;2022-12-20T00:57:06;13.70;85.40
76613;DHT22;65507;48.454;-2.058;2022-12-20T00:59:32;13.70;85.40
76613;DHT22;65507;48.454;-2.058;2022-12-20T01:01:58;13.70;85.40
76613;DHT22;65507;48.454;-2.058;2022-12-20T01:04:24;13.70;85.40
76613;DHT22;65507;48.454;-2.058;2022-12-20T01:06:50;13.70;85.30
76613;DHT22;65507;48.454;-2.058;2022-12-20T01:09:15;13.70;86.20
76613;DHT22;65507;48.454;-2.058;2022-12-20T01:11:41;13.80;85.30
76613;DHT22;65507;48.454;-2.058;2022-12-20T01:14:11;13.80;85.20
76613;DHT22;65507;48.454;-2.058;2022-12-20T01:16:40;13.80;85.20
76613;DHT22;65507;48.454;-2.058;2022-12-20T01:19:07;13.80;85.20
76613;DHT22;65507;48.454;-2.058;2022-12-20T01:21:33;13.80;85.10
76613;DHT22;65507;48.454;-2.058;2022-12-20T01:23:59;13.80;85.10
76613;DHT22;65507;48.454;-2.058;2022-12-20T01:26:26;13.80;85.10
76613;DHT22;65507;48.454;-2.058;2022-12-20T01:28:55;13.90;85.00
76613;DHT22;65507;48.454;-2.058;2022-12-20T01:31:23;13.90;85.00
76613;DHT22;65507;48.454;-2.058;2022-12-20T01:33:50;13.90;85.00
76613;DHT22;65507;48.454;-2.058;2022-12-20T01:36:20;13.90;84.90
76613;DHT22;65507;48.454;-2.058;2022-12-20T01:38:46;13.90;84.90
76613;DHT22;65507;48.454;-2.058;2022-12-20T01:41:20;13.90;84.80
76613;DHT22;65507;48.454;-2.058;2022-12-20T01:43:55;14.00;84.80
76613;DHT22;65507;48.454;-2.058;2022-12-20T01:46:23;14.00;84.80
76613;DHT22;65507;48.454;-2.058;2022-12-20T01:49:01;14.10;84.80
76613;DHT22;65507;48.454;-2.058;2022-12-20T01:51:33;14.10;84.70
76613;DHT22;65507;48.454;-2.058;2022-12-20T01:54:14;14.10;84.70
76613;DHT22;65507;48.454;-2.058;2022-12-20T01:56:45;14.10;84.60
76613;DHT22;65507;48.454;-2.058;2022-12-20T01:59:13;14.20;84.60
76613;DHT22;65507;48.454;-2.058;2022-12-20T02:01:41;14.20;84.60
76613;DHT22;65507;48.454;-2.058;2022-12-20T02:04:07;14.20;84.60
76613;DHT22;65507;48.454;-2.058;2022-12-20T02:06:33;14.20;84.60
76613;DHT22;65507;48.454;-2.058;2022-12-20T02:08:59;14.30;84.60
76613;DHT22;65507;48.454;-2.058;2022-12-20T02:20:21;14.30;84.60
76613;DHT22;65507;48.454;-2.058;2022-12-20T02:23:10;14.30;84.50
76613;DHT22;65507;48.454;-2.058;2022-12-20T02:25:59;14.40;84.60
76613;DHT22;65507;48.454;-2.058;2022-12-20T02:31:37;14.40;84.60
76613;DHT22;65507;48.454;-2.058;2022-12-20T02:34:05;14.40;84.60
76613;DHT22;65507;48.454;-2.058;2022-12-20T02:36:32;14.40;84.60
76613;DHT22;65507;48.454;-2.058;2022-12-20T02:38:57;14.40;84.60
76613;DHT22;65507;48.454;-2.058;2022-12-20T02:41:38;14.40;84.70
76613;DHT22;65507;48.454;-2.058;2022-12-20T02:44:09;14.50;84.80
76613;DHT22;65507;48.454;-2.058;2022-12-20T02:46:57;14.50;84.70
76613;DHT22;65507;48.454;-2.058;2022-12-20T02:49:29;14.50;84.70
76613;DHT22;65507;48.454;-2.058;2022-12-20T02:51:56;14.50;84.80
76613;DHT22;65507;48.454;-2.058;2022-12-20T02:54:24;14.50;84.70
76613;DHT22;65507;48.454;-2.058;2022-12-20T03:00:04;14.50;84.70
76613;DHT22;65507;48.454;-2.058;2022-12-20T03:02:31;14.50;84.70
76613;DHT22;65507;48.454;-2.058;2022-12-20T03:05:20;14.50;84.70
76613;DHT22;65507;48.454;-2.058;2022-12-20T03:07:46;14.50;84.70
76613;DHT22;65507;48.454;-2.058;2022-12-20T03:10:13;14.50;84.80
76613;DHT22;65507;48.454;-2.058;2022-12-20T03:12:39;14.50;84.80
76613;DHT22;65507;48.454;-2.058;2022-12-20T03:15:05;14.50;84.80
76613;DHT22;65507;48.454;-2.058;2022-12-20T03:17:31;14.50;84.90
76613;DHT22;65507;48.454;-2.058;2022-12-20T03:19:57;14.50;84.90
76613;DHT22;65507;48.454;-2.058;2022-12-20T03:22:22;14.60;85.00
76613;DHT22;65507;48.454;-2.058;2022-12-20T03:24:49;14.50;85.00
76613;DHT22;65507;48.454;-2.058;2022-12-20T03:27:14;14.60;85.00
76613;DHT22;65507;48.454;-2.058;2022-12-20T03:29:41;14.60;85.00
76613;DHT22;65507;48.454;-2.058;2022-12-20T03:32:06;14.60;85.00
76613;DHT22;65507;48.454;-2.058;2022-12-20T03:34:32;14.60;85.00
76613;DHT22;65507;48.454;-2.058;2022-12-20T03:36:58;14.60;85.10
76613;DHT22;65507;48.454;-2.058;2022-12-20T03:39:24;14.60;85.00
76613;DHT22;65507;48.454;-2.058;2022-12-20T03:41:49;14.70;85.10
76613;DHT22;65507;48.454;-2.058;2022-12-20T03:44:15;14.70;85.00
76613;DHT22;65507;48.454;-2.058;2022-12-20T03:46:41;14.60;85.00
76613;DHT22;65507;48.454;-2.058;2022-12-20T03:49:06;14.60;85.00
76613;DHT22;65507;48.454;-2.058;2022-12-20T03:51:32;14.70;85.00
76613;DHT22;65507;48.454;-2.058;2022-12-20T03:53:58;14.70;85.10
76613;DHT22;65507;48.454;-2.058;2022-12-20T03:56:24;14.70;85.10
76613;DHT22;65507;48.454;-2.058;2022-12-20T03:58:49;14.70;85.10
76613;DHT22;65507;48.454;-2.058;2022-12-20T04:01:21;14.70;85.00
76613;DHT22;65507;48.454;-2.058;2022-12-20T04:03:47;14.70;85.00
76613;DHT22;65507;48.454;-2.058;2022-12-20T04:06:13;14.80;85.00
76613;DHT22;65507;48.454;-2.058;2022-12-20T04:08:38;14.70;84.90
76613;DHT22;65507;48.454;-2.058;2022-12-20T04:11:04;14.70;85.00
76613;DHT22;65507;48.454;-2.058;2022-12-20T04:13:49;14.70;85.00
76613;DHT22;65507;48.454;-2.058;2022-12-20T04:16:19;14.80;85.00
76613;DHT22;65507;48.454;-2.058;2022-12-20T04:18:45;14.80;85.00
76613;DHT22;65507;48.454;-2.058;2022-12-20T04:21:11;14.80;85.00
76613;DHT22;65507;48.454;-2.058;2022-12-20T04:23:39;14.80;85.00
76613;DHT22;65507;48.454;-2.058;2022-12-20T04:26:06;14.80;85.10
76613;DHT22;65507;48.454;-2.058;2022-12-20T04:28:33;14.80;85.00
76613;DHT22;65507;48.454;-2.058;2022-12-20T04:30:58;14.80;85.10
76613;DHT22;65507;48.454;-2.058;2022-12-20T04:33:25;14.80;85.10
76613;DHT22;65507;48.454;-2.058;2022-12-20T04:35:52;14.80;85.20
76613;DHT22;65507;48.454;-2.058;2022-12-20T04:38:18;14.80;85.30
76613;DHT22;65507;48.454;-2.058;2022-12-20T04:40:48;14.70;85.30
76613;DHT22;65507;48.454;-2.058;2022-12-20T04:43:14;14.70;85.40
76613;DHT22;65507;48.454;-2.058;2022-12-20T04:45:40;14.70;85.40
76613;DHT22;65507;48.454;-2.058;2022-12-20T04:48:06;14.70;85.50
76613;DHT22;65507;48.454;-2.058;2022-12-20T04:50:32;14.70;85.50
76613;DHT22;65507;48.454;-2.058;2022-12-20T04:52:58;14.70;85.60
76613;DHT22;65507;48.454;-2.058;2022-12-20T04:55:42;14.70;85.70
76613;DHT22;65507;48.454;-2.058;2022-12-20T04:58:08;14.70;85.60
76613;DHT22;65507;48.454;-2.058;2022-12-20T05:00:33;14.70;85.70
76613;DHT22;65507;48.454;-2.058;2022-12-20T05:02:59;14.70;85.70
76613;DHT22;65507;48.454;-2.058;2022-12-20T05:05:25;14.70;85.70
76613;DHT22;65507;48.454;-2.058;2022-12-20T05:07:52;14.70;85.80
76613;DHT22;65507;48.454;-2.058;2022-12-20T05:10:18;14.70;85.70
76613;DHT22;65507;48.454;-2.058;2022-12-20T05:12:44;14.70;85.80
76613;DHT22;65507;48.454;-2.058;2022-12-20T05:15:10;14.70;85.80
76613;DHT22;65507;48.454;-2.058;2022-12-20T05:17:36;14.70;85.80
76613;DHT22;65507;48.454;-2.058;2022-12-20T05:20:02;14.70;85.90
76613;DHT22;65507;48.454;-2.058;2022-12-20T05:22:28;14.70;85.80
76613;DHT22;65507;48.454;-2.058;2022-12-20T05:25:13;14.70;85.90
76613;DHT22;65507;48.454;-2.058;2022-12-20T05:27:57;14.70;85.90
76613;DHT22;65507;48.454;-2.058;2022-12-20T05:30:24;14.70;86.00
76613;DHT22;65507;48.454;-2.058;2022-12-20T05:32:49;14.70;86.00
76613;DHT22;65507;48.454;-2.058;2022-12-20T05:35:15;14.70;86.10
76613;DHT22;65507;48.454;-2.058;2022-12-20T05:37:41;14.70;86.10
76613;DHT22;65507;48.454;-2.058;2022-12-20T05:40:08;14.70;86.10
76613;DHT22;65507;48.454;-2.058;2022-12-20T05:42:34;14.70;86.20
76613;DHT22;65507;48.454;-2.058;2022-12-20T05:44:59;14.70;86.20
76613;DHT22;65507;48.454;-2.058;2022-12-20T05:47:26;14.60;86.30
76613;DHT22;65507;48.454;-2.058;2022-12-20T05:49:52;14.60;86.30
76613;DHT22;65507;48.454;-2.058;2022-12-20T05:52:17;14.60;86.40
76613;DHT22;65507;48.454;-2.058;2022-12-20T05:54:43;14.60;86.40
76613;DHT22;65507;48.454;-2.058;2022-12-20T05:57:09;14.60;86.40
76613;DHT22;65507;48.454;-2.058;2022-12-20T05:59:35;14.60;86.50
76613;DHT22;65507;48.454;-2.058;2022-12-20T06:02:00;14.60;86.50
76613;DHT22;65507;48.454;-2.058;2022-12-20T06:04:26;14.60;86.50
76613;DHT22;65507;48.454;-2.058;2022-12-20T06:06:52;14.50;86.50
76613;DHT22;65507;48.454;-2.058;2022-12-20T06:09:18;14.60;86.50
76613;DHT22;65507;48.454;-2.058;2022-12-20T06:11:43;14.60;86.50
76613;DHT22;65507;48.454;-2.058;2022-12-20T06:14:09;14.60;86.50
76613;DHT22;65507;48.454;-2.058;2022-12-20T06:16:35;14.50;86.50
76613;DHT22;65507;48.454;-2.058;2022-12-20T06:19:01;14.50;86.60
76613;DHT22;65507;48.454;-2.058;2022-12-20T06:21:27;14.50;86.60
76613;DHT22;65507;48.454;-2.058;2022-12-20T06:23:53;14.50;86.70
76613;DHT22;65507;48.454;-2.058;2022-12-20T06:26:19;14.50;87.00
76613;DHT22;65507;48.454;-2.058;2022-12-20T06:28:48;14.50;87.70
76613;DHT22;65507;48.454;-2.058;2022-12-20T06:31:17;14.50;86.70
76613;DHT22;65507;48.454;-2.058;2022-12-20T06:33:43;14.50;86.70
76613;DHT22;65507;48.454;-2.058;2022-12-20T06:36:09;14.50;86.70
76613;DHT22;65507;48.454;-2.058;2022-12-20T06:38:35;14.50;86.80
76613;DHT22;65507;48.454;-2.058;2022-12-20T06:41:01;14.50;86.80
76613;DHT22;65507;48.454;-2.058;2022-12-20T06:43:26;14.50;86.80
76613;DHT22;65507;48.454;-2.058;2022-12-20T06:45:52;14.50;86.80
76613;DHT22;65507;48.454;-2.058;2022-12-20T06:48:18;14.50;86.80
76613;DHT22;65507;48.454;-2.058;2022-12-20T06:50:47;14.50;86.90
76613;DHT22;65507;48.454;-2.058;2022-12-20T06:53:13;14.50;86.90
76613;DHT22;65507;48.454;-2.058;2022-12-20T06:55:38;14.50;86.90
76613;DHT22;65507;48.454;-2.058;2022-12-20T06:58:04;14.50;86.90
76613;DHT22;65507;48.454;-2.058;2022-12-20T07:00:30;14.50;86.90
76613;DHT22;65507;48.454;-2.058;2022-12-20T07:02:57;14.50;86.90
76613;DHT22;65507;48.454;-2.058;2022-12-20T07:05:22;14.50;86.90
76613;DHT22;65507;48.454;-2.058;2022-12-20T07:07:48;14.50;87.00
76613;DHT22;65507;48.454;-2.058;2022-12-20T07:10:14;14.50;87.00
76613;DHT22;65507;48.454;-2.058;2022-12-20T07:12:40;14.50;87.00
76613;DHT22;65507;48.454;-2.058;2022-12-20T07:15:09;14.50;87.00
76613;DHT22;65507;48.454;-2.058;2022-12-20T07:17:34;14.50;87.00
76613;DHT22;65507;48.454;-2.058;2022-12-20T07:20:00;14.50;87.00
76613;DHT22;65507;48.454;-2.058;2022-12-20T07:22:26;14.50;87.00
76613;DHT22;65507;48.454;-2.058;2022-12-20T07:24:54;14.50;87.00
76613;DHT22;65507;48.454;-2.058;2022-12-20T07:27:20;14.50;87.10
76613;DHT22;65507;48.454;-2.058;2022-12-20T07:29:46;14.50;87.10
76613;DHT22;65507;48.454;-2.058;2022-12-20T07:32:12;14.50;87.10
76613;DHT22;65507;48.454;-2.058;2022-12-20T07:34:38;14.50;87.10
76613;DHT22;65507;48.454;-2.058;2022-12-20T07:37:04;14.50;87.10
76613;DHT22;65507;48.454;-2.058;2022-12-20T07:39:30;14.50;87.20
76613;DHT22;65507;48.454;-2.058;2022-12-20T07:41:55;14.50;87.10
76613;DHT22;65507;48.454;-2.058;2022-12-20T07:44:22;14.50;87.10
76613;DHT22;65507;48.454;-2.058;2022-12-20T07:46:48;14.50;87.10
76613;DHT22;65507;48.454;-2.058;2022-12-20T07:49:14;14.50;87.20
76613;DHT22;65507;48.454;-2.058;2022-12-20T07:51:43;14.50;87.20
76613;DHT22;65507;48.454;-2.058;2022-12-20T07:54:14;14.50;87.20
76613;DHT22;65507;48.454;-2.058;2022-12-20T07:56:44;14.50;87.20
76613;DHT22;65507;48.454;-2.058;2022-12-20T07:59:13;14.50;87.20
76613;DHT22;65507;48.454;-2.058;2022-12-20T08:01:41;14.50;87.20
76613;DHT22;65507;48.454;-2.058;2022-12-20T08:04:12;14.50;87.20
76613;DHT22;65507;48.454;-2.058;2022-12-20T08:06:40;14.60;87.30
76613;DHT22;65507;48.454;-2.058;2022-12-20T08:09:07;14.50;87.20
76613;DHT22;65507;48.454;-2.058;2022-12-20T08:11:36;14.40;87.10
76613;DHT22;65507;48.454;-2.058;2022-12-20T08:14:04;14.20;87.50
76613;DHT22;65507;48.454;-2.058;2022-12-20T08:16:31;14.00;87.80
76613;DHT22;65507;48.454;-2.058;2022-12-20T08:18:57;13.80;88.00
76613;DHT22;65507;48.454;-2.058;2022-12-20T08:21:22;13.70;88.40
76613;DHT22;65507;48.454;-2.058;2022-12-20T08:23:48;13.60;88.50
76613;DHT22;65507;48.454;-2.058;2022-12-20T08:26:14;13.50;88.60
76613;DHT22;65507;48.454;-2.058;2022-12-20T08:28:39;13.40;88.80
76613;DHT22;65507;48.454;-2.058;2022-12-20T08:31:07;13.30;88.80
76613;DHT22;65507;48.454;-2.058;2022-12-20T08:33:34;13.20;89.00
76613;DHT22;65507;48.454;-2.058;2022-12-20T08:36:03;13.10;89.10
76613;DHT22;65507;48.454;-2.058;2022-12-20T08:38:30;13.10;89.10
76613;DHT22;65507;48.454;-2.058;2022-12-20T08:41:05;13.10;89.00
76613;DHT22;65507;48.454;-2.058;2022-12-20T08:43:33;13.00;89.00
76613;DHT22;65507;48.454;-2.058;2022-12-20T08:45:59;12.90;89.00
76613;DHT22;65507;48.454;-2.058;2022-12-20T08:48:25;12.80;89.00
76613;DHT22;65507;48.454;-2.058;2022-12-20T08:50:57;12.70;89.30
76613;DHT22;65507;48.454;-2.058;2022-12-20T08:53:23;12.60;89.40
76613;DHT22;65507;48.454;-2.058;2022-12-20T08:55:49;12.60;89.40
76613;DHT22;65507;48.454;-2.058;2022-12-20T08:58:15;12.60;89.30
76613;DHT22;65507;48.454;-2.058;2022-12-20T09:00:41;12.60;89.20
76613;DHT22;65507;48.454;-2.058;2022-12-20T09:03:07;12.60;89.20
76613;DHT22;65507;48.454;-2.058;2022-12-20T09:05:34;12.60;89.00
76613;DHT22;65507;48.454;-2.058;2022-12-20T09:08:00;12.50;88.80
76613;DHT22;65507;48.454;-2.058;2022-12-20T09:10:25;12.50;89.00
76613;DHT22;65507;48.454;-2.058;2022-12-20T09:12:51;12.40;89.00
76613;DHT22;65507;48.454;-2.058;2022-12-20T09:15:17;12.40;89.00
76613;DHT22;65507;48.454;-2.058;2022-12-20T09:17:43;12.30;88.90
76613;DHT22;65507;48.454;-2.058;2022-12-20T09:20:08;12.30;89.00
76613;DHT22;65507;48.454;-2.058;2022-12-20T09:22:34;12.30;89.00
76613;DHT22;65507;48.454;-2.058;2022-12-20T09:25:00;12.30;88.90
76613;DHT22;65507;48.454;-2.058;2022-12-20T09:27:26;12.40;88.80
76613;DHT22;65507;48.454;-2.058;2022-12-20T09:29:51;12.30;88.70
76613;DHT22;65507;48.454;-2.058;2022-12-20T09:32:17;12.40;88.70
76613;DHT22;65507;48.454;-2.058;2022-12-20T09:34:43;12.30;88.60
76613;DHT22;65507;48.454;-2.058;2022-12-20T09:37:13;12.30;88.70
76613;DHT22;65507;48.454;-2.058;2022-12-20T09:39:38;12.30;88.80
76613;DHT22;65507;48.454;-2.058;2022-12-20T09:42:06;12.30;88.70
76613;DHT22;65507;48.454;-2.058;2022-12-20T09:44:37;12.30;88.60
76613;DHT22;65507;48.454;-2.058;2022-12-20T09:47:08;12.40;88.60
76613;DHT22;65507;48.454;-2.058;2022-12-20T09:49:39;12.40;88.60
76613;DHT22;65507;48.454;-2.058;2022-12-20T09:52:46;12.40;88.50
76613;DHT22;65507;48.454;-2.058;2022-12-20T09:55:33;12.40;88.50
76613;DHT22;65507;48.454;-2.058;2022-12-20T09:58:09;12.40;88.30
76613;DHT22;65507;48.454;-2.058;2022-12-20T10:00:45;12.40;88.20
76613;DHT22;65507;48.454;-2.058;2022-12-20T10:03:24;12.50;88.20
76613;DHT22;65507;48.454;-2.058;2022-12-20T10:05:53;12.40;88.10
76613;DHT22;65507;48.454;-2.058;2022-12-20T10:08:38;12.50;89.10
76613;DHT22;65507;48.454;-2.058;2022-12-20T10:16:45;12.50;88.00
76613;DHT22;65507;48.454;-2.058;2022-12-20T10:21:55;12.50;88.00
76613;DHT22;65507;48.454;-2.058;2022-12-20T10:24:29;12.50;88.00
76613;DHT22;65507;48.454;-2.058;2022-12-20T10:26:57;12.50;88.00
76613;DHT22;65507;48.454;-2.058;2022-12-20T10:29:27;12.50;88.00
76613;DHT22;65507;48.454;-2.058;2022-12-20T10:31:58;12.50;88.00
76613;DHT22;65507;48.454;-2.058;2022-12-20T10:34:25;12.50;88.00
76613;DHT22;65507;48.454;-2.058;2022-12-20T10:37:13;12.50;88.00
76613;DHT22;65507;48.454;-2.058;2022-12-20T10:39:46;12.50;88.00
76613;DHT22;65507;48.454;-2.058;2022-12-20T10:44:58;12.40;88.10
76613;DHT22;65507;48.454;-2.058;2022-12-20T10:47:44;12.40;88.30
76613;DHT22;65507;48.454;-2.058;2022-12-20T10:50:19;12.40;88.40
76613;DHT22;65507;48.454;-2.058;2022-12-20T10:55:41;12.40;88.50
76613;DHT22;65507;48.454;-2.058;2022-12-20T10:58:30;12.30;88.40
76613;DHT22;65507;48.454;-2.058;2022-12-20T11:01:13;12.30;88.50
76613;DHT22;65507;48.454;-2.058;2022-12-20T11:04:03;12.20;88.70
76613;DHT22;65507;48.454;-2.058;2022-12-20T11:06:42;12.30;88.60
76613;DHT22;65507;48.454;-2.058;2022-12-20T11:12:05;12.40;88.30
76613;DHT22;65507;48.454;-2.058;2022-12-20T11:14:34;12.50;88.20
76613;DHT22;65507;48.454;-2.058;2022-12-20T11:17:16;12.50;88.20
76613;DHT22;65507;48.454;-2.058;2022-12-20T11:33:32;12.60;88.10
76613;DHT22;65507;48.454;-2.058;2022-12-20T11:36:05;12.60;88.00
76613;DHT22;65507;48.454;-2.058;2022-12-20T11:38:40;12.60;87.90
76613;DHT22;65507;48.454;-2.058;2022-12-20T11:44:14;12.60;87.80
76613;DHT22;65507;48.454;-2.058;2022-12-20T11:52:34;12.60;87.90
76613;DHT22;65507;48.454;-2.058;2022-12-20T11:57:52;12.60;88.00
76613;DHT22;65507;48.454;-2.058;2022-12-20T12:00:20;12.60;88.00
76613;DHT22;65507;48.454;-2.058;2022-12-20T12:05:46;12.60;87.90
76613;DHT22;65507;48.454;-2.058;2022-12-20T12:08:44;12.60;87.80
76613;DHT22;65507;48.454;-2.058;2022-12-20T12:11:26;12.70;87.80
76613;DHT22;65507;48.454;-2.058;2022-12-20T12:13:54;12.70;87.80
76613;DHT22;65507;48.454;-2.058;2022-12-20T12:16:38;12.70;87.70
76613;DHT22;65507;48.454;-2.058;2022-12-20T12:19:08;12.70;87.70
76613;DHT22;65507;48.454;-2.058;2022-12-20T12:21:46;12.70;87.70
76613;DHT22;65507;48.454;-2.058;2022-12-20T12:26:48;12.70;87.70
76613;DHT22;65507;48.454;-2.058;2022-12-20T12:29:16;12.70;87.80
76613;DHT22;65507;48.454;-2.058;2022-12-20T12:45:18;12.70;87.80
76613;DHT22;65507;48.454;-2.058;2022-12-20T12:47:48;12.70;87.70
76613;DHT22;65507;48.454;-2.058;2022-12-20T12:50:24;12.70;87.50
76613;DHT22;65507;48.454;-2.058;2022-12-20T12:52:57;12.60;87.60
76613;DHT22;65507;48.454;-2.058;2022-12-20T12:55:47;12.60;87.80
76613;DHT22;65507;48.454;-2.058;2022-12-20T13:03:42;12.60;87.90
76613;DHT22;65507;48.454;-2.058;2022-12-20T13:11:29;12.50;87.90
76613;DHT22;65507;48.454;-2.058;2022-12-20T13:16:53;12.40;88.00
76613;DHT22;65507;48.454;-2.058;2022-12-20T13:21:58;12.20;88.20
76613;DHT22;65507;48.454;-2.058;2022-12-20T13:30:27;11.90;88.40
76613;DHT22;65507;48.454;-2.058;2022-12-20T13:38:01;11.70;88.50
76613;DHT22;65507;48.454;-2.058;2022-12-20T13:40:49;11.70;88.40
76613;DHT22;65507;48.454;-2.058;2022-12-20T13:51:04;11.90;88.00
76613;DHT22;65507;48.454;-2.058;2022-12-20T13:53:32;11.90;87.90
76613;DHT22;65507;48.454;-2.058;2022-12-20T13:55:58;11.90;88.00
76613;DHT22;65507;48.454;-2.058;2022-12-20T13:58:45;11.90;88.00
76613;DHT22;65507;48.454;-2.058;2022-12-20T14:01:12;12.00;88.00
76613;DHT22;65507;48.454;-2.058;2022-12-20T14:03:41;12.00;87.70
76613;DHT22;65507;48.454;-2.058;2022-12-20T14:06:11;12.10;87.80
76613;DHT22;65507;48.454;-2.058;2022-12-20T14:08:40;12.10;87.70
76613;DHT22;65507;48.454;-2.058;2022-12-20T14:11:24;12.10;87.60
76613;DHT22;65507;48.454;-2.058;2022-12-20T14:16:20;12.40;87.20
76613;DHT22;65507;48.454;-2.058;2022-12-20T14:18:48;12.50;87.00
76613;DHT22;65507;48.454;-2.058;2022-12-20T14:21:14;12.50;86.80
76613;DHT22;65507;48.454;-2.058;2022-12-20T14:23:43;12.60;86.70
76613;DHT22;65507;48.454;-2.058;2022-12-20T14:26:15;12.60;86.50
76613;DHT22;65507;48.454;-2.058;2022-12-20T14:28:50;12.60;86.40
76613;DHT22;65507;48.454;-2.058;2022-12-20T14:31:25;12.70;86.50
76613;DHT22;65507;48.454;-2.058;2022-12-20T14:34:31;12.70;86.40
76613;DHT22;65507;48.454;-2.058;2022-12-20T14:37:29;12.70;86.40
76613;DHT22;65507;48.454;-2.058;2022-12-20T14:42:27;12.60;86.50
76613;DHT22;65507;48.454;-2.058;2022-12-20T14:47:33;12.80;86.40
76613;DHT22;65507;48.454;-2.058;2022-12-20T14:50:12;12.90;86.20
76613;DHT22;65507;48.454;-2.058;2022-12-20T14:52:41;12.90;86.00
76613;DHT22;65507;48.454;-2.058;2022-12-20T14:55:17;13.00;86.00
76613;DHT22;65507;48.454;-2.058;2022-12-20T14:57:52;13.00;85.80
76613;DHT22;65507;48.454;-2.058;2022-12-20T15:00:27;13.00;85.70
76613;DHT22;65507;48.454;-2.058;2022-12-20T15:03:15;13.10;85.70
76613;DHT22;65507;48.454;-2.058;2022-12-20T15:05:53;13.10;85.80
76613;DHT22;65507;48.454;-2.058;2022-12-20T15:13:17;13.00;85.90
76613;DHT22;65507;48.454;-2.058;2022-12-20T15:15:43;12.90;86.20
76613;DHT22;65507;48.454;-2.058;2022-12-20T15:18:14;12.90;86.30
76613;DHT22;65507;48.454;-2.058;2022-12-20T15:20:42;12.90;86.40
76613;DHT22;65507;48.454;-2.058;2022-12-20T15:23:19;12.90;86.30
76613;DHT22;65507;48.454;-2.058;2022-12-20T15:25:46;12.90;86.30
76613;DHT22;65507;48.454;-2.058;2022-12-20T15:28:18;12.90;86.30
76613;DHT22;65507;48.454;-2.058;2022-12-20T15:30:45;12.90;86.30
76613;DHT22;65507;48.454;-2.058;2022-12-20T15:33:38;12.90;86.30
76613;DHT22;65507;48.454;-2.058;2022-12-20T15:36:05;12.90;86.20
76613;DHT22;65507;48.454;-2.058;2022-12-20T15:38:31;12.90;86.20
76613;DHT22;65507;48.454;-2.058;2022-12-20T15:41:02;12.90;86.10
76613;DHT22;65507;48.454;-2.058;2022-12-20T15:43:34;12.90;86.10
76613;DHT22;65507;48.454;-2.058;2022-12-20T15:46:02;12.90;86.10
76613;DHT22;65507;48.454;-2.058;2022-12-20T15:48:28;12.90;86.00
76613;DHT22;65507;48.454;-2.058;2022-12-20T15:50:55;12.80;86.00
76613;DHT22;65507;48.454;-2.058;2022-12-20T15:53:30;12.80;86.10
76613;DHT22;65507;48.454;-2.058;2022-12-20T15:55:57;12.80;86.20
76613;DHT22;65507;48.454;-2.058;2022-12-20T15:58:23;12.70;86.30
76613;DHT22;65507;48.454;-2.058;2022-12-20T16:00:53;12.70;86.40
76613;DHT22;65507;48.454;-2.058;2022-12-20T16:03:21;12.70;86.50
76613;DHT22;65507;48.454;-2.058;2022-12-20T16:05:48;12.60;86.40
76613;DHT22;65507;48.454;-2.058;2022-12-20T16:08:16;12.60;86.50
76613;DHT22;65507;48.454;-2.058;2022-12-20T16:10:44;12.50;86.60
76613;DHT22;65507;48.454;-2.058;2022-12-20T16:13:15;12.40;86.70
76613;DHT22;65507;48.454;-2.058;2022-12-20T16:15:42;12.50;86.80
76613;DHT22;65507;48.454;-2.058;2022-12-20T16:18:08;12.40;86.90
76613;DHT22;65507;48.454;-2.058;2022-12-20T16:20:34;12.30;86.90
76613;DHT22;65507;48.454;-2.058;2022-12-20T16:23:00;12.30;86.90
76613;DHT22;65507;48.454;-2.058;2022-12-20T16:25:32;12.30;87.00
76613;DHT22;65507;48.454;-2.058;2022-12-20T16:27:58;12.20;87.00
76613;DHT22;65507;48.454;-2.058;2022-12-20T16:30:25;12.20;87.00
76613;DHT22;65507;48.454;-2.058;2022-12-20T16:32:51;12.20;87.10
76613;DHT22;65507;48.454;-2.058;2022-12-20T16:35:31;12.20;87.10
76613;DHT22;65507;48.454;-2.058;2022-12-20T16:37:59;12.20;87.20
76613;DHT22;65507;48.454;-2.058;2022-12-20T16:40:27;12.10;87.20
76613;DHT22;65507;48.454;-2.058;2022-12-20T16:42:54;12.10;87.20
76613;DHT22;65507;48.454;-2.058;2022-12-20T16:45:23;12.10;87.30
76613;DHT22;65507;48.454;-2.058;2022-12-20T16:47:49;12.10;87.30
76613;DHT22;65507;48.454;-2.058;2022-12-20T16:50:16;12.00;87.40
76613;DHT22;65507;48.454;-2.058;2022-12-20T16:52:42;12.00;87.40
76613;DHT22;65507;48.454;-2.058;2022-12-20T16:55:18;12.00;87.30
76613;DHT22;65507;48.454;-2.058;2022-12-20T16:57:45;12.00;87.40
76613;DHT22;65507;48.454;-2.058;2022-12-20T17:00:16;11.90;87.40
76613;DHT22;65507;48.454;-2.058;2022-12-20T17:02:43;11.90;87.40
76613;DHT22;65507;48.454;-2.058;2022-12-20T17:05:30;11.90;87.50
76613;DHT22;65507;48.454;-2.058;2022-12-20T17:07:56;11.80;87.50
76613;DHT22;65507;48.454;-2.058;2022-12-20T17:10:22;11.80;87.60
76613;DHT22;65507;48.454;-2.058;2022-12-20T17:12:49;11.70;87.70
76613;DHT22;65507;48.454;-2.058;2022-12-20T17:15:27;11.70;87.70
76613;DHT22;65507;48.454;-2.058;2022-12-20T17:17:54;11.70;87.80
76613;DHT22;65507;48.454;-2.058;2022-12-20T17:20:21;11.70;87.70
76613;DHT22;65507;48.454;-2.058;2022-12-20T17:22:51;11.70;87.70
76613;DHT22;65507;48.454;-2.058;2022-12-20T17:25:23;11.70;87.70
76613;DHT22;65507;48.454;-2.058;2022-12-20T17:27:49;11.60;87.70
76613;DHT22;65507;48.454;-2.058;2022-12-20T17:30:15;11.60;87.70
76613;DHT22;65507;48.454;-2.058;2022-12-20T17:32:41;11.50;87.70